Accueil
METAR-TAF:

METAR-TAF

Aéroports :

Aéroport de Sion

Sion, Suisse

latitude: 46-13N, longitude: 007-20E, altitude: 482 m

Observation

Le bulletin a été fait il y a 43 minutes, à 15:50 UTC
Vent 12 kt de ouest/sud-ouest, variant entre sud/sud-ouest et ouest
Température 25°C
Humidité 54%
Pression 1014 hPa
Visibilité 10 km ou plus
Nuages épars à une hauteur de 7000 ft

METAR: LSGS 281550Z 24012KT 210V280 9999 SCT070 25/15 Q1014

Heure: 18:33 (16:33 UTC)

Prévision

Le bulletin a été fait il y a 2 heures et 8 minutes, à 14:25 UTC
Prévision valable du 28 à 15 UTC au 28 à 24 UTC
Vent 10 kt de ouest/sud-ouest
Visibilité 10 km ou plus
Quelques nuages à une hauteur de 2500 ft
Nuages épars à une hauteur de 10000 ft
Evoluant progressivement
du 28 à 18 UTC au 28 à 20 UTC
Vent 2 kt de direction variable

TAF: LSGS 281425Z 2815/2824 25010KT 9999 FEW025 SCT100 BECMG 2818/2820 VRB02KT

Observations et prévisions météorologiques de plus de 4000 aéroports (messages METAR et TAF).

Les stations disponibles sont représentées par des disques jaunes et rouges sur la carte.

Passer la souris dessus pour voir le nom de la station.

Cliquer dessus pour voir les observations et prévisions météorologiques.

Pour changer de carte: cliquez sur les boutons verts avec une croix noire pour zoomer, sur le bouton vert avec un tiret pour effectuer un zoom arrière, ou sur les flèches vertes pour les cartes adjacentes.


METAR-TAF: